createdAt,value
2022-09-24T00:01:16.518Z,4.20
2022-09-24T00:03:45.290Z,4.43
2022-09-24T00:06:15.343Z,4.80
2022-09-24T00:08:41.922Z,5.23
2022-09-24T00:11:12.013Z,4.57
2022-09-24T00:13:38.970Z,4.57
2022-09-24T00:16:07.816Z,4.90
2022-09-24T00:18:34.476Z,5.03
2022-09-24T00:21:00.966Z,4.50
2022-09-24T00:23:27.359Z,4.87
2022-09-24T00:26:12.365Z,4.83
2022-09-24T00:28:38.614Z,4.53
2022-09-24T00:31:06.913Z,4.80
2022-09-24T00:33:34.512Z,4.50
2022-09-24T00:36:04.670Z,4.53
2022-09-24T00:38:34.407Z,4.60
2022-09-24T00:41:00.809Z,4.80
2022-09-24T00:43:28.308Z,4.10
2022-09-24T00:46:03.351Z,4.77
2022-09-24T00:48:30.222Z,4.50
2022-09-24T00:50:56.667Z,4.70
2022-09-24T00:53:25.485Z,4.60
2022-09-24T00:55:54.553Z,4.43
2022-09-24T00:58:22.945Z,4.50
2022-09-24T01:00:49.933Z,4.30
2022-09-24T01:03:21.269Z,4.50
2022-09-24T01:05:47.544Z,4.53
2022-09-24T01:08:14.586Z,4.27
2022-09-24T01:10:50.857Z,4.53
2022-09-24T01:13:41.169Z,4.83
2022-09-24T01:16:29.559Z,4.47
2022-09-24T01:19:18.100Z,4.77
2022-09-24T01:21:49.105Z,4.60
2022-09-24T01:24:15.317Z,4.70
2022-09-24T01:26:51.993Z,4.73
2022-09-24T01:29:27.248Z,4.70
2022-09-24T01:32:18.276Z,4.73
2022-09-24T01:34:48.296Z,5.03
2022-09-24T01:37:15.823Z,4.60
2022-09-24T01:39:43.709Z,4.47
2022-09-24T01:42:11.076Z,4.87
2022-09-24T01:44:38.783Z,4.67
2022-09-24T01:47:06.333Z,4.40
2022-09-24T01:49:32.733Z,4.50
2022-09-24T01:52:01.297Z,4.33
2022-09-24T01:54:51.742Z,4.97
2022-09-24T01:57:23.575Z,4.37
2022-09-24T01:59:49.842Z,4.57
2022-09-24T02:02:27.590Z,4.27
2022-09-24T02:04:59.624Z,4.50
2022-09-24T02:07:34.742Z,4.50
2022-09-24T02:10:01.094Z,4.63
2022-09-24T02:12:33.340Z,4.57
2022-09-24T02:15:07.224Z,4.57
2022-09-24T02:17:35.224Z,4.67
2022-09-24T02:20:03.311Z,4.60
2022-09-24T02:22:30.411Z,4.77
2022-09-24T02:25:01.097Z,4.60
2022-09-24T02:27:30.462Z,4.43
2022-09-24T02:29:57.377Z,4.80
2022-09-24T02:32:24.901Z,4.73
2022-09-24T02:34:53.959Z,4.37
2022-09-24T02:37:21.965Z,5.07
2022-09-24T02:39:48.247Z,4.50
2022-09-24T02:42:15.300Z,4.80
2022-09-24T02:44:41.504Z,4.70
2022-09-24T02:47:08.104Z,5.00
2022-09-24T02:49:34.440Z,4.50
2022-09-24T02:52:00.849Z,4.73
2022-09-24T02:54:27.136Z,4.60
2022-09-24T02:56:53.434Z,4.63
2022-09-24T02:59:19.812Z,4.80
2022-09-24T03:01:46.241Z,5.00
2022-09-24T03:04:12.877Z,4.83
2022-09-24T03:06:39.113Z,4.70
2022-09-24T03:09:05.665Z,4.70
2022-09-24T03:11:32.955Z,4.27
2022-09-24T03:13:59.855Z,4.90
2022-09-24T03:16:26.482Z,4.63
2022-09-24T03:18:52.787Z,4.67
2022-09-24T03:21:19.701Z,4.70
2022-09-24T03:23:46.315Z,5.13
2022-09-24T03:26:12.740Z,4.77
2022-09-24T03:28:39.204Z,4.27
2022-09-24T03:31:05.688Z,4.47
2022-09-24T03:33:33.392Z,12.00
2022-09-24T03:36:01.348Z,6.07
2022-09-24T03:38:27.828Z,4.90
2022-09-24T03:40:54.148Z,4.60
2022-09-24T03:43:20.439Z,5.17
2022-09-24T03:45:46.716Z,5.13
2022-09-24T03:48:12.950Z,4.90
2022-09-24T03:50:39.270Z,4.80
2022-09-24T03:53:05.542Z,4.67
2022-09-24T03:55:31.823Z,4.77
2022-09-24T03:57:58.104Z,4.63
2022-09-24T04:00:24.400Z,4.40
2022-09-24T04:02:51.155Z,4.63
2022-09-24T04:05:17.769Z,4.43
2022-09-24T04:07:44.653Z,4.43
2022-09-24T04:10:11.211Z,4.27
2022-09-24T04:12:37.707Z,4.50
2022-09-24T04:15:04.567Z,4.43
2022-09-24T04:17:31.366Z,4.20
2022-09-24T04:19:58.390Z,4.53
2022-09-24T04:22:26.033Z,4.33
2022-09-24T04:24:52.546Z,4.00
2022-09-24T04:27:18.806Z,4.67
2022-09-24T04:29:45.078Z,6.13
2022-09-24T04:32:11.297Z,6.07
2022-09-24T04:34:37.564Z,4.70
2022-09-24T04:37:03.826Z,4.67
2022-09-24T04:39:30.069Z,4.53
2022-09-24T04:41:56.289Z,4.57
2022-09-24T04:44:23.504Z,4.30
2022-09-24T04:46:50.197Z,4.47
2022-09-24T04:49:16.469Z,4.07
2022-09-24T04:51:42.733Z,4.03
2022-09-24T04:54:09.474Z,4.23
2022-09-24T04:56:35.701Z,4.40
2022-09-24T04:59:02.003Z,4.40
2022-09-24T05:01:29.032Z,4.23
2022-09-24T05:03:55.288Z,4.30
2022-09-24T05:06:21.557Z,4.07
2022-09-24T05:08:47.784Z,3.93
2022-09-24T05:11:14.080Z,4.40
2022-09-24T05:13:40.324Z,3.80
2022-09-24T05:16:06.665Z,4.60
2022-09-24T05:18:32.985Z,5.60
2022-09-24T05:20:59.289Z,4.87
2022-09-24T05:23:25.583Z,4.53
2022-09-24T05:26:10.538Z,4.20
2022-09-24T05:28:37.580Z,4.27
2022-09-24T05:31:03.929Z,4.33
2022-09-24T05:33:30.293Z,4.40
2022-09-24T05:35:57.878Z,4.20
2022-09-24T05:38:24.468Z,4.20
2022-09-24T05:40:50.863Z,4.17
2022-09-24T05:43:19.151Z,3.80
2022-09-24T05:45:45.969Z,4.50
2022-09-24T05:48:12.241Z,4.17
2022-09-24T05:50:38.513Z,4.10
2022-09-24T05:53:05.260Z,4.10
2022-09-24T05:55:32.696Z,4.90
2022-09-24T05:58:18.070Z,4.20
2022-09-24T06:00:45.492Z,4.40
2022-09-24T06:03:15.578Z,4.13
2022-09-24T06:05:46.313Z,4.30
2022-09-24T06:08:12.657Z,4.10
2022-09-24T06:10:38.906Z,4.20
2022-09-24T06:13:05.128Z,4.33
2022-09-24T06:15:31.354Z,5.50
2022-09-24T06:17:57.625Z,28.93
2022-09-24T06:20:23.981Z,6.20
2022-09-24T06:22:50.462Z,4.70
2022-09-24T06:25:16.730Z,4.50
2022-09-24T06:27:42.997Z,4.23
2022-09-24T06:30:09.453Z,4.43
2022-09-24T06:32:35.704Z,4.23
2022-09-24T06:35:01.928Z,4.50
2022-09-24T06:37:28.172Z,4.60
2022-09-24T06:39:54.377Z,4.20
2022-09-24T06:42:20.692Z,4.60
2022-09-24T06:44:46.904Z,4.33
2022-09-24T06:47:13.141Z,52.20
2022-09-24T06:49:40.693Z,16.40
2022-09-24T06:52:07.005Z,5.30
2022-09-24T06:54:33.283Z,4.70
2022-09-24T06:56:59.549Z,4.47
2022-09-24T06:59:25.804Z,4.43
2022-09-24T07:01:52.452Z,4.60
2022-09-24T07:04:18.870Z,4.40
2022-09-24T07:07:05.426Z,4.70
2022-09-24T07:09:31.828Z,5.00
2022-09-24T07:11:58.606Z,4.80
2022-09-24T07:14:24.918Z,4.77
2022-09-24T07:16:52.145Z,4.60
2022-09-24T07:19:18.377Z,4.67
2022-09-24T07:21:44.595Z,4.47
2022-09-24T07:24:10.848Z,4.70
2022-09-24T07:26:37.057Z,12.80
2022-09-24T07:29:03.916Z,6.30
2022-09-24T07:31:30.202Z,5.57
2022-09-24T07:33:56.460Z,4.53
2022-09-24T07:36:23.021Z,4.47
2022-09-24T07:38:49.257Z,4.60
2022-09-24T07:41:15.510Z,5.53
2022-09-24T07:43:42.057Z,4.70
2022-09-24T07:46:08.339Z,4.60
2022-09-24T07:48:34.648Z,5.20
2022-09-24T07:51:01.010Z,4.67
2022-09-24T07:53:27.208Z,4.93
2022-09-24T07:55:53.510Z,5.00
2022-09-24T07:58:19.719Z,71.10
2022-09-24T08:00:46.447Z,42.40
2022-09-24T08:03:12.695Z,6.40
2022-09-24T08:05:42.995Z,5.47
2022-09-24T08:08:09.224Z,4.80
2022-09-24T08:10:35.421Z,4.77
2022-09-24T08:13:02.200Z,4.60
2022-09-24T08:15:28.433Z,5.20
2022-09-24T08:17:54.668Z,5.40
2022-09-24T08:20:23.402Z,5.10
2022-09-24T08:22:49.649Z,5.67
2022-09-24T08:25:15.885Z,4.80
2022-09-24T08:27:42.125Z,5.10
2022-09-24T08:30:08.622Z,5.20
2022-09-24T08:32:34.967Z,4.80
2022-09-24T08:35:01.415Z,5.50
2022-09-24T08:37:27.954Z,5.97
2022-09-24T08:39:54.414Z,57.30
2022-09-24T08:42:23.418Z,49.20
2022-09-24T08:45:09.482Z,10.10
2022-09-24T08:47:54.879Z,6.07
2022-09-24T08:50:31.407Z,5.93
2022-09-24T08:53:03.110Z,6.07
2022-09-24T08:55:49.442Z,7.20
2022-09-24T08:58:28.289Z,7.00
2022-09-24T09:01:01.172Z,7.20
2022-09-24T09:03:35.259Z,6.73
2022-09-24T09:06:03.661Z,7.40
2022-09-24T09:09:01.211Z,7.77
2022-09-24T09:11:23.928Z,10.73
2022-09-24T09:13:56.678Z,10.60
2022-09-24T09:16:46.192Z,11.97
2022-09-24T09:19:14.108Z,11.80
2022-09-24T09:21:42.145Z,11.90
2022-09-24T09:24:18.615Z,49.07
2022-09-24T09:26:47.472Z,15.00
2022-09-24T09:29:13.779Z,13.83
2022-09-24T09:32:01.412Z,13.83
2022-09-24T09:34:29.693Z,12.07
2022-09-24T09:37:07.527Z,11.90
2022-09-24T09:39:54.781Z,12.00
2022-09-24T09:42:36.053Z,11.33
2022-09-24T09:45:06.837Z,11.73
2022-09-24T09:47:45.870Z,13.93
2022-09-24T09:50:38.511Z,48.03
2022-09-24T09:53:05.385Z,11.73
2022-09-24T09:55:35.905Z,11.90
2022-09-24T09:58:10.466Z,11.90
2022-09-24T10:00:36.780Z,11.73
2022-09-24T10:03:04.157Z,12.00
2022-09-24T10:05:30.729Z,11.90
2022-09-24T10:07:59.977Z,12.20
2022-09-24T10:10:27.398Z,12.00
2022-09-24T10:13:14.032Z,10.73
2022-09-24T10:15:49.087Z,12.47
2022-09-24T10:18:15.853Z,11.57
2022-09-24T10:20:46.048Z,11.90
2022-09-24T10:23:15.109Z,13.03
2022-09-24T10:25:49.326Z,13.20
2022-09-24T10:28:35.777Z,13.27
2022-09-24T10:31:12.468Z,13.03
2022-09-24T10:33:39.663Z,12.73
2022-09-24T10:36:07.603Z,11.47
2022-09-24T10:38:34.038Z,11.87
2022-09-24T10:41:01.362Z,12.17
2022-09-24T10:43:27.669Z,13.30
2022-09-24T10:46:17.401Z,18.37
2022-09-24T10:48:45.472Z,24.77
2022-09-24T10:51:11.767Z,14.07
2022-09-24T10:53:56.993Z,14.10
2022-09-24T10:56:32.047Z,13.97
2022-09-24T10:59:17.167Z,13.60
2022-09-24T11:01:52.814Z,13.73
2022-09-24T11:04:30.445Z,13.33
2022-09-24T11:07:00.044Z,13.60
2022-09-24T11:09:31.950Z,13.30
2022-09-24T11:12:24.680Z,14.23
2022-09-24T11:15:06.106Z,13.17
2022-09-24T11:17:44.795Z,13.27
2022-09-24T11:20:17.325Z,13.63
2022-09-24T11:22:52.445Z,13.07
2022-09-24T11:25:38.156Z,13.97
2022-09-24T11:28:23.217Z,14.77
2022-09-24T11:30:49.535Z,15.60
2022-09-24T11:33:22.104Z,14.23
2022-09-24T11:36:01.332Z,16.03
2022-09-24T11:38:35.657Z,16.73
2022-09-24T11:41:16.854Z,16.90
2022-09-24T11:43:49.766Z,17.37
2022-09-24T11:46:22.118Z,17.67
2022-09-24T11:48:57.281Z,17.77
2022-09-24T11:51:42.521Z,24.00
2022-09-24T11:54:15.004Z,19.33
2022-09-24T11:56:46.121Z,17.77
2022-09-24T11:59:31.320Z,17.60
2022-09-24T12:02:19.216Z,16.40
2022-09-24T12:04:50.445Z,14.93
2022-09-24T12:07:19.433Z,16.37
2022-09-24T12:09:50.072Z,16.70
2022-09-24T12:12:19.901Z,15.67
2022-09-24T12:14:50.625Z,15.43
2022-09-24T12:17:37.159Z,15.73
2022-09-24T12:20:14.271Z,14.90
2022-09-24T12:22:41.477Z,13.50
2022-09-24T12:25:12.368Z,13.90
2022-09-24T12:27:38.926Z,13.93
2022-09-24T12:30:24.109Z,14.47
2022-09-24T12:32:58.715Z,13.57
2022-09-24T12:35:39.623Z,14.27
2022-09-24T12:38:14.559Z,13.40
2022-09-24T12:41:01.810Z,13.50
2022-09-24T12:43:37.167Z,14.33
2022-09-24T12:46:04.860Z,16.13
2022-09-24T12:48:34.747Z,11.87
2022-09-24T12:51:02.266Z,11.07
2022-09-24T12:53:38.612Z,11.03
2022-09-24T12:56:06.000Z,9.73
2022-09-24T12:58:45.116Z,9.40
2022-09-24T13:01:31.189Z,9.57
2022-09-24T13:04:25.096Z,11.10
2022-09-24T13:06:51.466Z,10.43
2022-09-24T13:09:34.120Z,10.00
2022-09-24T13:12:03.497Z,10.27
2022-09-24T13:14:31.938Z,10.10
2022-09-24T13:17:05.045Z,10.60
2022-09-24T13:19:37.624Z,13.73
2022-09-24T13:22:04.344Z,12.30
2022-09-24T13:24:45.675Z,10.53
2022-09-24T13:27:32.190Z,11.40
2022-09-24T13:30:04.661Z,11.70
2022-09-24T13:32:34.347Z,21.43
2022-09-24T13:35:06.381Z,18.13
2022-09-24T13:37:39.632Z,11.10
2022-09-24T13:40:13.621Z,9.57
2022-09-24T13:42:46.166Z,9.30
2022-09-24T13:45:16.718Z,10.37
2022-09-24T13:47:42.993Z,10.90
2022-09-24T13:50:16.641Z,10.57
2022-09-24T13:52:45.479Z,10.40
2022-09-24T13:55:20.564Z,10.10
2022-09-24T13:57:47.818Z,12.27
2022-09-24T14:00:17.433Z,10.77
2022-09-24T14:02:45.863Z,13.90
2022-09-24T14:05:16.292Z,11.67
2022-09-24T14:07:42.953Z,16.57
2022-09-24T14:10:13.885Z,13.30
2022-09-24T14:12:40.167Z,10.77
2022-09-24T14:15:14.333Z,10.33
2022-09-24T14:17:40.620Z,10.47
2022-09-24T14:20:12.582Z,9.57
2022-09-24T14:22:40.582Z,10.63
2022-09-24T14:25:08.625Z,9.73
2022-09-24T14:27:39.890Z,21.17
2022-09-24T14:30:07.804Z,48.53
2022-09-24T14:32:33.997Z,15.97
2022-09-24T14:35:10.960Z,9.13
2022-09-24T14:37:38.564Z,8.10
2022-09-24T14:40:12.441Z,8.97
2022-09-24T14:42:41.372Z,9.00
2022-09-24T14:45:09.404Z,9.00
2022-09-24T14:47:36.791Z,8.17
2022-09-24T14:50:03.917Z,7.67
2022-09-24T14:52:36.353Z,8.73
2022-09-24T14:55:11.917Z,8.70
2022-09-24T14:57:38.262Z,8.40
2022-09-24T15:00:19.859Z,8.80
2022-09-24T15:02:55.318Z,8.70
2022-09-24T15:05:26.026Z,8.80
2022-09-24T15:07:54.229Z,9.30
2022-09-24T15:10:22.032Z,9.00
2022-09-24T15:12:49.494Z,9.40
2022-09-24T15:15:20.675Z,9.47
2022-09-24T15:17:47.556Z,9.00
2022-09-24T15:20:14.077Z,8.90
2022-09-24T15:22:40.439Z,9.50
2022-09-24T15:25:06.888Z,8.73
2022-09-24T15:27:34.350Z,9.27
2022-09-24T15:30:01.390Z,8.17
2022-09-24T15:32:28.652Z,9.30
2022-09-24T15:34:55.917Z,9.80
2022-09-24T15:37:23.152Z,11.47
2022-09-24T15:39:50.196Z,10.60
2022-09-24T15:42:16.988Z,11.50
2022-09-24T15:44:44.595Z,42.87
2022-09-24T15:47:11.340Z,22.43
2022-09-24T15:49:37.611Z,14.83
2022-09-24T15:52:09.686Z,14.77
2022-09-24T15:54:35.972Z,13.87
2022-09-24T15:57:02.732Z,21.77
2022-09-24T15:59:29.028Z,15.17
2022-09-24T16:01:57.669Z,11.73
2022-09-24T16:04:23.998Z,10.80
2022-09-24T16:06:50.305Z,9.57
2022-09-24T16:09:16.669Z,10.60
2022-09-24T16:11:43.143Z,9.90
2022-09-24T16:14:09.829Z,10.40
2022-09-24T16:16:38.149Z,9.70
2022-09-24T16:19:06.951Z,10.10
2022-09-24T16:21:33.230Z,9.70
2022-09-24T16:24:00.503Z,10.00
2022-09-24T16:26:26.926Z,11.00
2022-09-24T16:28:53.172Z,10.93
2022-09-24T16:31:19.818Z,10.40
2022-09-24T16:33:46.215Z,11.63
2022-09-24T16:36:12.549Z,10.77
2022-09-24T16:38:38.964Z,10.90
2022-09-24T16:41:06.708Z,11.77
2022-09-24T16:43:33.038Z,12.20
2022-09-24T16:46:00.312Z,12.33
2022-09-24T16:48:26.770Z,12.73
2022-09-24T16:50:53.006Z,14.53
2022-09-24T16:53:19.420Z,14.50
2022-09-24T16:55:45.658Z,14.03
2022-09-24T16:58:11.917Z,27.70
2022-09-24T17:00:42.177Z,25.17
2022-09-24T17:03:09.695Z,15.73
2022-09-24T17:05:42.026Z,13.47
2022-09-24T17:08:08.305Z,12.23
2022-09-24T17:10:34.548Z,13.37
2022-09-24T17:13:01.714Z,12.00
2022-09-24T17:15:28.056Z,11.33
2022-09-24T17:17:54.405Z,11.47
2022-09-24T17:20:21.202Z,11.33
2022-09-24T17:22:48.403Z,12.03
2022-09-24T17:25:14.813Z,11.37
2022-09-24T17:27:41.078Z,10.87
2022-09-24T17:30:07.751Z,11.53
2022-09-24T17:32:33.986Z,11.73
2022-09-24T17:35:00.337Z,12.90
2022-09-24T17:37:27.394Z,21.37
2022-09-24T17:39:53.649Z,19.50
2022-09-24T17:42:19.893Z,14.57
2022-09-24T17:44:46.545Z,14.97
2022-09-24T17:47:13.041Z,15.33
2022-09-24T17:49:39.333Z,15.57
2022-09-24T17:52:05.565Z,15.50
2022-09-24T17:54:32.069Z,14.77
2022-09-24T17:56:58.344Z,14.27
2022-09-24T17:59:26.961Z,14.60
2022-09-24T18:01:53.733Z,14.63
2022-09-24T18:04:20.731Z,14.67
2022-09-24T18:06:47.855Z,16.23
2022-09-24T18:09:14.629Z,15.70
2022-09-24T18:11:45.424Z,15.13
2022-09-24T18:14:14.640Z,14.47
2022-09-24T18:16:41.369Z,15.23
2022-09-24T18:19:07.596Z,15.63
2022-09-24T18:21:33.894Z,15.13
2022-09-24T18:24:00.458Z,15.27
2022-09-24T18:26:32.556Z,16.13
2022-09-24T18:28:59.604Z,16.70
2022-09-24T18:31:28.063Z,16.67
2022-09-24T18:33:54.917Z,19.20
2022-09-24T18:36:22.241Z,19.07
2022-09-24T18:38:49.197Z,20.50
2022-09-24T18:41:25.431Z,19.87
2022-09-24T18:43:52.827Z,18.80
2022-09-24T18:46:19.824Z,17.73
2022-09-24T18:48:47.184Z,19.20
2022-09-24T18:51:16.572Z,18.93
2022-09-24T18:53:43.374Z,19.20
2022-09-24T18:56:09.777Z,19.33
2022-09-24T18:58:36.142Z,18.83
2022-09-24T19:01:03.777Z,17.83
2022-09-24T19:03:30.560Z,61.73
2022-09-24T19:06:00.808Z,21.10
2022-09-24T19:08:28.904Z,29.47
2022-09-24T19:10:55.372Z,21.07
2022-09-24T19:13:26.216Z,19.30
2022-09-24T19:15:52.941Z,21.13
2022-09-24T19:18:19.251Z,21.27
2022-09-24T19:20:48.477Z,20.97
2022-09-24T19:23:15.815Z,20.53
2022-09-24T19:25:42.327Z,20.47
2022-09-24T19:28:11.192Z,19.27
2022-09-24T19:30:41.972Z,18.57
2022-09-24T19:33:09.626Z,18.27
2022-09-24T19:35:37.787Z,18.80
2022-09-24T19:38:04.067Z,18.57
2022-09-24T19:40:30.907Z,19.03
2022-09-24T19:42:57.234Z,18.63
2022-09-24T19:45:23.547Z,19.30
2022-09-24T19:47:51.438Z,18.10
2022-09-24T19:50:18.743Z,18.30
2022-09-24T19:52:47.228Z,18.53
2022-09-24T19:55:13.481Z,19.47
2022-09-24T19:57:40.218Z,19.10
2022-09-24T20:00:06.758Z,19.57
2022-09-24T20:02:33.021Z,18.30
2022-09-24T20:04:59.268Z,19.53
2022-09-24T20:07:25.489Z,20.90
2022-09-24T20:09:51.730Z,20.40
2022-09-24T20:12:19.500Z,20.50
2022-09-24T20:14:45.781Z,21.40
2022-09-24T20:17:12.718Z,21.70
2022-09-24T20:19:38.952Z,21.80
2022-09-24T20:22:07.527Z,21.83
2022-09-24T20:24:35.062Z,21.97
2022-09-24T20:27:21.579Z,22.10
2022-09-24T20:29:48.416Z,22.93
2022-09-24T20:32:15.794Z,20.83
2022-09-24T20:34:42.176Z,22.10
2022-09-24T20:37:08.668Z,22.30
2022-09-24T20:39:35.100Z,22.20
2022-09-24T20:42:03.555Z,21.60
2022-09-24T20:44:30.753Z,21.73
2022-09-24T20:46:57.970Z,21.47
2022-09-24T20:49:24.349Z,21.63
2022-09-24T20:51:56.256Z,20.93
2022-09-24T20:54:23.476Z,20.50
2022-09-24T20:56:49.968Z,23.13
2022-09-24T20:59:16.473Z,20.80
2022-09-24T21:01:43.162Z,21.57
2022-09-24T21:04:09.674Z,20.67
2022-09-24T21:06:36.526Z,20.90
2022-09-24T21:09:03.364Z,21.37
2022-09-24T21:11:30.966Z,21.30
2022-09-24T21:14:00.497Z,22.43
2022-09-24T21:16:28.783Z,22.43
2022-09-24T21:18:55.432Z,23.07
2022-09-24T21:21:22.958Z,22.47
2022-09-24T21:23:50.288Z,22.87
2022-09-24T21:26:21.445Z,22.87
2022-09-24T21:28:49.161Z,25.00
2022-09-24T21:31:16.570Z,23.97
2022-09-24T21:33:47.035Z,24.33
2022-09-24T21:36:15.855Z,23.40
2022-09-24T21:38:42.080Z,25.30
2022-09-24T21:41:08.851Z,25.03
2022-09-24T21:43:35.281Z,22.63
2022-09-24T21:46:06.384Z,24.80
2022-09-24T21:48:33.203Z,25.97
2022-09-24T21:51:07.069Z,25.83
2022-09-24T21:53:33.885Z,27.60
2022-09-24T21:56:00.498Z,26.63
2022-09-24T21:58:26.774Z,25.20
2022-09-24T22:00:53.529Z,26.27
2022-09-24T22:03:20.719Z,27.50
2022-09-24T22:05:47.437Z,27.17
2022-09-24T22:08:14.663Z,27.60
2022-09-24T22:10:42.350Z,28.03
2022-09-24T22:13:09.401Z,29.27
2022-09-24T22:15:35.840Z,28.40
2022-09-24T22:18:02.367Z,29.23
2022-09-24T22:20:29.046Z,29.67
2022-09-24T22:22:55.425Z,29.20
2022-09-24T22:25:22.025Z,29.10
2022-09-24T22:27:48.274Z,28.83
2022-09-24T22:30:14.506Z,27.87
2022-09-24T22:32:40.756Z,26.70
2022-09-24T22:35:25.660Z,26.00
2022-09-24T22:37:51.868Z,24.53
2022-09-24T22:40:18.245Z,25.17
2022-09-24T22:42:44.498Z,24.50
2022-09-24T22:45:11.116Z,24.27
2022-09-24T22:47:37.346Z,24.07
2022-09-24T22:50:03.625Z,24.20
2022-09-24T22:52:29.959Z,23.10
2022-09-24T22:54:56.219Z,23.47
2022-09-24T22:57:22.501Z,23.67
2022-09-24T22:59:49.307Z,24.47
2022-09-24T23:02:15.572Z,25.50
2022-09-24T23:04:41.894Z,25.17
2022-09-24T23:07:08.264Z,24.60
2022-09-24T23:09:34.477Z,26.33
2022-09-24T23:12:00.776Z,27.57
2022-09-24T23:14:27.021Z,27.77
2022-09-24T23:16:53.370Z,26.70
2022-09-24T23:19:20.105Z,26.13
2022-09-24T23:21:46.829Z,27.17
2022-09-24T23:24:14.889Z,26.60
2022-09-24T23:26:41.648Z,27.83
2022-09-24T23:29:08.773Z,27.37
2022-09-24T23:31:36.860Z,26.70
2022-09-24T23:34:04.179Z,26.40
2022-09-24T23:36:31.267Z,25.87
2022-09-24T23:38:58.324Z,25.90
2022-09-24T23:41:25.958Z,25.70
2022-09-24T23:44:11.096Z,25.60
2022-09-24T23:46:37.476Z,24.07
2022-09-24T23:49:04.044Z,23.47
2022-09-24T23:51:30.297Z,24.37
2022-09-24T23:53:56.579Z,23.47
2022-09-24T23:56:23.067Z,23.10
2022-09-24T23:58:49.349Z,23.63
